Seabourn Legend — C6FR6 — position and weather

sailwx.info

Track history (hours):
 
Tides and Currents Weather Stations Pressure Air Temp Water Temp Dewpoint Dewpoint Depression Visibility Wind Speed Wind Dir Waves Ship Positions

Seabourn Legend

Operator: Cunard Seabourn

Last reported at 2018-May-24 07:12 UTC. Time now 2018-May-24 15:58 UTC.
Position N 58°17' W 136°23'.

Length 135 m; draft 5.7 m.

Type: Passenger vessel. MMSI: 311085000.

Date/timePositionNaut miles runAvg speedWind from/ knotsBaromVisibWave heightAir tempDewpointWater temp
2018-May-24 07:12N 58°17' W 136°23'314.1
2018-May-24 06:58N 58°18' W 136°17'613.8
2018-May-24 06:31N 58°20' W 136°06'714.1
2018-May-24 06:00N 58°18' W 135°52'713.6
2018-May-24 05:30N 58°17' W 135°40'713.7
2018-May-24 05:00N 58°14' W 135°28'  
2018-May-21 20:00N 58°12' W 135°24'3 0.2 100 / 51005.6 2.2 13.1 10.0
2018-May-21 05:32N 58°10' W 135°20'110.1
2018-May-21 05:28N 58°11' W 135°21'4 9.3
2018-May-21 04:59N 58°13' W 135°28'510.3
2018-May-21 04:30N 58°15' W 135°37'4 7.2
2018-May-21 04:01N 58°16' W 135°43'712.9
2018-May-21 03:30N 58°14' W 135°31'611.5
2018-May-21 03:00N 58°09' W 135°27'1 1.8
2018-May-21 02:19N 58°08' W 135°28'0 0.0
2018-May-21 00:50N 58°08' W 135°28'0 0.1
2018-May-21 00:27N 58°08' W 135°28'0 0.0
2018-May-20 16:35N 58°08' W 135°28'0 3.3
2018-May-20 16:29N 58°08' W 135°28'4 8.8
2018-May-20 16:01N 58°12' W 135°27'714.0
2018-May-20 15:30N 58°16' W 135°39'613.0
2018-May-20 15:00N 58°18' W 135°51'713.2
2018-May-20 14:30N 58°16' W 136°02'612.8
2018-May-20 14:01N 58°17' W 136°14'1410.3
2018-May-20 12:37N 58°10' W 136°38'1219.0
2018-May-20 12:00N 58°06' W 137°00'15112.6 150 / 131010.610.8 12.0 8.0
2018-May-20 00:00N 58°36' W 141°42'   140 / 181013.610.8 11.0 8.0
2018-May-17 01:00N 57°54' W 151°00'38212.3 090 / 221019.6 2.2 11.1
2018-May-15 18:00N 54°00' W 160°00'27813.3 040 / 101015.5 5.4 8.7 1.1
2018-May-14 21:00N 52°18' W 167°12'   090 / 101018.7 5.4 11.0
Track history (hours):
 
Tides and Currents Weather Stations Pressure Air Temp Water Temp Dewpoint Dewpoint Depression Visibility Wind Speed Wind Dir Waves Ship Positions

Seabourn Legend

Operator: Cunard Seabourn

Last reported at 2018-May-24 07:12 UTC. Time now 2018-May-24 15:58 UTC.
Position N 58°17' W 136°23'.

Length 135 m; draft 5.7 m.

Type: Passenger vessel. MMSI: 311085000.

Date/timePositionNaut miles runAvg speedWind from/ knotsBaromVisibWave heightAir tempDewpointWater temp
2018-May-24 07:12N 58°17' W 136°23'314.1
2018-May-24 06:58N 58°18' W 136°17'613.8
2018-May-24 06:31N 58°20' W 136°06'714.1
2018-May-24 06:00N 58°18' W 135°52'713.6
2018-May-24 05:30N 58°17' W 135°40'713.7
2018-May-24 05:00N 58°14' W 135°28'  
2018-May-21 20:00N 58°12' W 135°24'3 0.2 100 / 51005.6 2.2 13.1 10.0
2018-May-21 05:32N 58°10' W 135°20'110.1
2018-May-21 05:28N 58°11' W 135°21'4 9.3
2018-May-21 04:59N 58°13' W 135°28'510.3
2018-May-21 04:30N 58°15' W 135°37'4 7.2
2018-May-21 04:01N 58°16' W 135°43'712.9
2018-May-21 03:30N 58°14' W 135°31'611.5
2018-May-21 03:00N 58°09' W 135°27'1 1.8
2018-May-21 02:19N 58°08' W 135°28'0 0.0
2018-May-21 00:50N 58°08' W 135°28'0 0.1
2018-May-21 00:27N 58°08' W 135°28'0 0.0
2018-May-20 16:35N 58°08' W 135°28'0 3.3
2018-May-20 16:29N 58°08' W 135°28'4 8.8
2018-May-20 16:01N 58°12' W 135°27'714.0
2018-May-20 15:30N 58°16' W 135°39'613.0
2018-May-20 15:00N 58°18' W 135°51'713.2
2018-May-20 14:30N 58°16' W 136°02'612.8
2018-May-20 14:01N 58°17' W 136°14'1410.3
2018-May-20 12:37N 58°10' W 136°38'1219.0
2018-May-20 12:00N 58°06' W 137°00'15112.6 150 / 131010.610.8 12.0 8.0
2018-May-20 00:00N 58°36' W 141°42'   140 / 181013.610.8 11.0 8.0
2018-May-17 01:00N 57°54' W 151°00'38212.3 090 / 221019.6 2.2 11.1
2018-May-15 18:00N 54°00' W 160°00'27813.3 040 / 101015.5 5.4 8.7 1.1
2018-May-14 21:00N 52°18' W 167°12'   090 / 101018.7 5.4 11.0

Dump ship's entire track history